Time;durP1;ratioP1;P1;durP2;ratioP2;P2;SDS_P1;SDS_P2;PMS_P1;PMS_P2;Temp;Humidity;BMP_temperature;BMP_pressure;BME280_temperature;BME280_humidity;BME280_pressure;Samples;Min_cycle;Max_cycle;Signal;HPM_P1;HPM_P2
2022/07/21 00:01:31;;;;;;;29.27;15.18;;;23.10;97.10;;;;;;4883858;29;20051;-74
2022/07/21 00:03:57;;;;;;;28.92;17.83;;;22.70;97.10;;;;;;4911827;29;20044;-74
2022/07/21 00:06:23;;;;;;;23.85;16.67;;;22.50;97.20;;;;;;4883959;29;20501;-74
2022/07/21 00:08:49;;;;;;;33.35;17.23;;;;;;;;;;4883787;29;20048;-75
2022/07/21 00:11:15;;;;;;;31.23;17.33;;;23.20;97.50;;;;;;4883941;29;20068;-74
2022/07/21 00:13:41;;;;;;;33.15;18.50;;;;;;;;;;4883683;29;20036;-74
2022/07/21 00:16:07;;;;;;;32.67;17.83;;;22.20;97.60;;;;;;4909205;29;20119;-75
2022/07/21 00:18:32;;;;;;;32.78;19.27;;;21.00;97.40;;;;;;4868158;29;20541;-75
2022/07/21 00:20:59;;;;;;;34.88;20.38;;;22.00;94.10;;;;;;4915215;29;20092;-75
2022/07/21 00:23:26;;;;;;;31.58;19.73;;;22.60;98.20;;;;;;4891712;29;20048;-75
2022/07/21 00:25:52;;;;;;;38.70;22.00;;;20.90;98.10;;;;;;4868323;29;20415;-75
2022/07/21 00:28:18;;;;;;;31.35;20.38;;;;;;;;;;4900441;29;20040;-75
2022/07/21 00:30:44;;;;;;;36.40;21.27;;;21.80;97.70;;;;;;4883471;29;20045;-76
2022/07/21 00:33:10;;;;;;;30.80;21.17;;;22.80;99.30;;;;;;4883448;29;20040;-76
2022/07/21 00:35:36;;;;;;;39.63;23.13;;;20.60;98.90;;;;;;4883129;29;20037;-76
2022/07/21 00:38:02;;;;;;;32.80;22.27;;;20.80;98.30;;;;;;4898930;29;20051;-76
2022/07/21 00:40:28;;;;;;;37.67;21.90;;;22.00;96.70;;;;;;4891474;29;20127;-76
2022/07/21 00:42:55;;;;;;;37.90;23.35;;;20.90;99.50;;;;;;4883019;29;20119;-77
2022/07/21 00:45:21;;;;;;;36.95;23.48;;;;;;;;;;4882872;29;20044;-76
2022/07/21 00:47:47;;;;;;;38.85;22.73;;;21.20;99.90;;;;;;4883381;29;20048;-76
2022/07/21 00:50:16;;;;;;;45.75;24.60;;;22.60;99.90;;;;;;4896011;29;20048;-76
2022/07/21 00:52:42;;;;;;;37.90;24.08;;;20.60;99.90;;;;;;4883174;29;20048;-75
2022/07/21 00:55:14;;;;;;;41.30;27.13;;;21.00;99.90;;;;;;4882757;29;20123;-75
2022/07/21 00:57:41;;;;;;;46.58;25.95;;;22.60;99.90;;;;;;4864619;29;20049;-74
2022/07/21 01:00:14;;;;;;;38.47;25.90;;;21.60;97.40;;;;;;4892172;29;20048;-74
2022/07/21 01:02:40;;;;;;;38.58;25.02;;;21.00;99.90;;;;;;4883099;29;20057;-74
2022/07/21 01:05:14;;;;;;;40.83;26.10;;;21.60;97.50;;;;;;4882392;29;20048;-74
2022/07/21 01:07:46;;;;;;;38.55;26.08;;;22.30;99.40;;;;;;4883100;29;20077;-73
2022/07/21 01:10:13;;;;;;;41.65;26.80;;;21.60;97.80;;;;;;4882837;29;20036;-73
2022/07/21 01:12:40;;;;;;;42.65;26.67;;;21.50;99.60;;;;;;4892119;29;20131;-73
2022/07/21 01:15:07;;;;;;;48.25;26.70;;;22.10;99.90;;;;;;4882568;29;20096;-73
2022/07/21 01:17:33;;;;;;;39.53;26.88;;;20.90;99.90;;;;;;4883067;29;20040;-73
2022/07/21 01:20:04;;;;;;;41.67;26.27;;;22.20;99.90;;;;;;4882973;29;20084;-73
2022/07/21 01:22:31;;;;;;;39.60;25.50;;;21.60;98.40;;;;;;4882743;29;20040;-73
2022/07/21 01:24:57;;;;;;;45.85;27.75;;;22.50;99.90;;;;;;4882288;29;20045;-73
2022/07/21 01:27:25;;;;;;;43.28;27.35;;;21.50;98.70;;;;;;4898622;29;20052;-73
2022/07/21 01:29:51;;;;;;;44.97;26.58;;;21.50;99.90;;;;;;4899388;29;20064;-73
2022/07/21 01:32:17;;;;;;;46.20;28.85;;;22.40;99.90;;;;;;4899179;29;20044;-73
2022/07/21 01:34:42;;;;;;;43.42;27.38;;;22.50;99.90;;;;;;4899388;29;20176;-70
2022/07/21 01:37:09;;;;;;;44.50;27.05;;;;;;;;;;4882228;29;20044;-70
2022/07/21 01:42:19;;;;;;;47.58;27.83;;;21.40;99.90;;;;;;4899363;29;20059;-70
2022/07/21 01:44:44;;;;;;;47.42;27.83;;;21.30;99.90;;;;;;4882195;29;20048;-71
2022/07/21 01:47:10;;;;;;;46.65;30.45;;;;;;;;;;4899145;29;20132;-71
2022/07/21 01:49:36;;;;;;;46.00;29.85;;;22.40;99.90;;;;;;4882432;29;20441;-71
2022/07/21 01:52:02;;;;;;;48.30;28.92;;;21.00;99.90;;;;;;4881815;29;20048;-71
2022/07/21 01:54:28;;;;;;;47.78;28.30;;;21.60;99.90;;;;;;4866391;29;20087;-71
2022/07/21 01:56:54;;;;;;;47.72;30.48;;;;;;;;;;4866506;29;20128;-70
2022/07/21 01:59:20;;;;;;;53.13;32.20;;;22.50;99.90;;;;;;4897301;29;20060;-70
2022/07/21 02:01:46;;;;;;;46.35;32.78;;;;;;;;;;4866215;29;20048;-69
2022/07/21 02:04:12;;;;;;;55.72;34.03;;;21.70;99.90;;;;;;4881622;29;20072;-69
2022/07/21 02:06:37;;;;;;;48.33;30.60;;;20.90;99.90;;;;;;4876844;29;20135;-69
2022/07/21 02:09:04;;;;;;;47.47;31.27;;;;;;;;;;4881621;29;20044;-69
2022/07/21 02:11:29;;;;;;;49.80;31.63;;;20.20;99.90;;;;;;4881118;29;20064;-69
2022/07/21 02:13:55;;;;;;;53.65;33.13;;;20.50;99.90;;;;;;4866065;29;20116;-69
2022/07/21 02:16:21;;;;;;;46.00;31.00;;;;;;;;;;4898307;29;20036;-69
2022/07/21 02:18:47;;;;;;;51.10;30.58;;;21.40;99.90;;;;;;4881500;29;20049;-69
2022/07/21 02:21:14;;;;;;;51.25;31.95;;;;;;;;;;4881504;29;20045;-69
2022/07/21 02:23:39;;;;;;;49.45;29.55;;;22.00;99.90;;;;;;4913166;29;20409;-68
2022/07/21 02:26:05;;;;;;;49.38;30.65;;;22.00;99.90;;;;;;4898358;29;20045;-68
2022/07/21 02:28:31;;;;;;;44.80;28.48;;;;;;;;;;4881308;29;20048;-68
2022/07/21 02:30:57;;;;;;;46.55;29.00;;;20.40;99.90;;;;;;4866462;29;20043;-69
2022/07/21 02:33:23;;;;;;;48.47;29.17;;;20.30;99.90;;;;;;4867695;29;20394;-70
2022/07/21 02:35:49;;;;;;;45.70;28.40;;;19.90;99.90;;;;;;4881455;29;20079;-68
2022/07/21 02:38:15;;;;;;;49.63;31.08;;;;;;;;;;4865512;29;20052;-68
2022/07/21 02:40:41;;;;;;;55.85;31.35;;;21.30;99.90;;;;;;4897166;29;20611;-68
2022/07/21 02:43:08;;;;;;;52.88;32.22;;;;;;;;;;4904263;29;20124;-68
2022/07/21 02:45:34;;;;;;;54.25;31.02;;;21.30;99.90;;;;;;4881325;29;20044;-68
2022/07/21 02:48:04;;;;;;;52.75;31.88;;;21.90;99.90;;;;;;4881020;29;20044;-69
2022/07/21 02:50:33;;;;;;;51.95;32.00;;;21.40;99.90;;;;;;4866212;29;20041;-68
2022/07/21 02:53:04;;;;;;;49.42;29.92;;;21.50;99.90;;;;;;4880972;29;20056;-68
2022/07/21 02:55:30;;;;;;;52.63;30.33;;;21.90;99.90;;;;;;4881216;29;20053;-68
2022/07/21 02:58:09;;;;;;;51.95;30.73;;;21.80;99.90;;;;;;4890254;29;20049;-69
2022/07/21 03:00:37;;;;;;;50.55;29.73;;;19.80;99.90;;;;;;4863013;29;20136;-69
2022/07/21 03:03:03;;;;;;;50.92;30.88;;;21.70;99.90;;;;;;4872106;29;20053;-69
2022/07/21 03:05:29;;;;;;;55.20;31.42;;;22.00;99.90;;;;;;4881112;29;20048;-69
2022/07/21 03:07:55;;;;;;;51.97;29.83;;;21.90;99.90;;;;;;4907731;29;20053;-69
2022/07/21 03:10:21;;;;;;;53.35;31.77;;;21.80;99.90;;;;;;4881227;29;20083;-69
2022/07/21 03:12:47;;;;;;;54.83;33.08;;;20.80;99.90;;;;;;4880806;29;20063;-69
2022/07/21 03:15:12;;;;;;;54.60;32.38;;;21.80;99.90;;;;;;4897525;29;20052;-69
2022/07/21 03:17:39;;;;;;;55.78;29.67;;;;;;;;;;4911122;29;20045;-69
2022/07/21 03:20:05;;;;;;;53.05;32.15;;;21.20;99.90;;;;;;4881092;29;20041;-69
2022/07/21 03:22:30;;;;;;;51.85;30.77;;;21.40;99.90;;;;;;4880837;29;20048;-69
2022/07/21 03:24:56;;;;;;;51.75;30.70;;;;;;;;;;4902826;29;20573;-69
2022/07/21 03:27:22;;;;;;;58.22;30.48;;;21.10;99.90;;;;;;4881091;29;20078;-69
2022/07/21 03:29:48;;;;;;;49.83;28.85;;;;;;;;;;4897772;29;20049;-69
2022/07/21 03:32:14;;;;;;;48.45;29.60;;;21.50;99.90;;;;;;4881087;29;20078;-69
2022/07/21 03:34:40;;;;;;;55.42;30.55;;;;;;;;;;4880554;29;20059;-69
2022/07/21 03:37:06;;;;;;;47.63;29.80;;;21.20;99.90;;;;;;4880934;29;20048;-69
2022/07/21 03:39:32;;;;;;;45.55;29.42;;;;;;;;;;4880825;29;20410;-69
2022/07/21 03:41:58;;;;;;;50.47;31.85;;;;;;;;;;4865502;29;20040;-69
2022/07/21 03:44:24;;;;;;;53.55;30.90;;;20.70;99.90;;;;;;4904843;29;20044;-69
2022/07/21 03:46:49;;;;;;;57.85;34.90;;;20.40;99.90;;;;;;4896283;29;20045;-69
2022/07/21 03:49:15;;;;;;;52.45;33.08;;;19.80;99.90;;;;;;4896934;29;20481;-69
2022/07/21 03:51:40;;;;;;;49.58;32.33;;;21.40;99.90;;;;;;4904880;29;20490;-69
2022/07/21 03:54:07;;;;;;;51.08;31.88;;;;;;;;;;4907649;29;20124;-72
2022/07/21 03:56:32;;;;;;;58.67;35.75;;;21.50;99.90;;;;;;4880824;29;20536;-72
2022/07/21 03:58:58;;;;;;;54.88;35.08;;;;;;;;;;4907407;29;20044;-72
2022/07/21 04:01:24;;;;;;;55.60;35.30;;;21.60;99.90;;;;;;4896038;29;20052;-72
2022/07/21 04:03:50;;;;;;;64.70;36.33;;;;;;;;;;4881392;29;20044;-72
2022/07/21 04:06:16;;;;;;;51.70;33.25;;;21.60;99.90;;;;;;4883825;29;20052;-73
2022/07/21 04:08:42;;;;;;;53.58;33.15;;;;;;;;;;4910835;29;20049;-74
2022/07/21 04:11:07;;;;;;;50.90;31.42;;;21.10;99.90;;;;;;4883671;29;20067;-73
2022/07/21 04:13:34;;;;;;;60.05;34.72;;;;;;;;;;4900043;29;20044;-74
2022/07/21 04:16:00;;;;;;;73.18;38.78;;;;;;;;;;4883987;29;20511;-71
2022/07/21 04:18:25;;;;;;;61.10;38.70;;;20.70;99.90;;;;;;4884364;29;20045;-71
2022/07/21 04:20:51;;;;;;;65.25;39.65;;;;;;;;;;4883725;29;20049;-71
2022/07/21 04:23:17;;;;;;;63.30;39.50;;;19.70;99.90;;;;;;4883563;29;20041;-71
2022/07/21 04:25:43;;;;;;;57.05;35.88;;;20.70;99.90;;;;;;4865170;29;20041;-71
2022/07/21 04:28:11;;;;;;;68.35;39.40;;;20.50;99.90;;;;;;4865318;29;20100;-71
2022/07/21 04:30:37;;;;;;;62.53;39.20;;;21.70;99.90;;;;;;4867063;29;20048;-71
2022/07/21 04:33:03;;;;;;;59.53;37.78;;;21.60;99.90;;;;;;4883415;29;20075;-71
2022/07/21 04:35:28;;;;;;;64.30;36.50;;;20.80;99.90;;;;;;4883333;29;20086;-71
2022/07/21 04:37:54;;;;;;;62.28;36.38;;;21.50;99.90;;;;;;4915013;29;20139;-71
2022/07/21 04:40:20;;;;;;;62.13;37.05;;;;;;;;;;4883134;29;20059;-71
2022/07/21 04:42:46;;;;;;;57.75;37.70;;;19.80;99.90;;;;;;4883334;29;20163;-71
2022/07/21 04:45:14;;;;;;;52.17;34.15;;;19.50;99.90;;;;;;4883519;29;20075;-72
2022/07/21 04:47:52;;;;;;;59.47;36.30;;;21.00;99.90;;;;;;4883215;29;20377;-72
2022/07/21 04:50:20;;;;;;;57.25;35.50;;;20.80;99.90;;;;;;4883386;29;20052;-72
2022/07/21 04:52:46;;;;;;;61.60;35.92;;;20.70;99.90;;;;;;4883479;29;20056;-72
2022/07/21 04:55:13;;;;;;;52.22;32.78;;;21.00;99.90;;;;;;4867499;29;20052;-72
2022/07/21 04:57:39;;;;;;;58.22;32.70;;;21.50;99.90;;;;;;4886308;29;20485;-72
2022/07/21 05:00:07;;;;;;;54.83;32.22;;;20.70;99.90;;;;;;4883042;29;20056;-70
2022/07/21 05:02:33;;;;;;;53.15;30.80;;;20.60;99.90;;;;;;4899479;29;20055;-72
2022/07/21 05:04:59;;;;;;;50.53;30.55;;;;;;;;;;4880641;29;20048;-72
2022/07/21 05:07:24;;;;;;;52.38;31.50;;;20.80;99.90;;;;;;4876221;29;20040;-70
2022/07/21 05:09:51;;;;;;;47.88;29.20;;;;;;;;;;4876483;29;20100;-69
2022/07/21 05:12:16;;;;;;;58.45;30.85;;;21.60;99.90;;;;;;4870152;29;20418;-69
2022/07/21 05:14:42;;;;;;;48.90;27.90;;;21.40;99.90;;;;;;4888655;29;20053;-69
2022/07/21 05:17:08;;;;;;;46.22;25.55;;;21.20;99.90;;;;;;4873802;29;20044;-69
2022/07/21 05:19:33;;;;;;;41.30;22.70;;;20.40;99.90;;;;;;4876955;29;20044;-71
2022/07/21 05:21:59;;;;;;;45.13;23.88;;;;;;;;;;4872049;29;20409;-72
2022/07/21 05:24:25;;;;;;;38.70;22.52;;;20.50;99.90;;;;;;4874722;29;20037;-72
2022/07/21 05:26:51;;;;;;;39.58;20.73;;;20.80;99.90;;;;;;4867725;29;20765;-72
2022/07/21 05:29:17;;;;;;;40.00;22.17;;;;;;;;;;4874135;29;20057;-72
2022/07/21 05:31:42;;;;;;;36.38;18.17;;;21.30;99.90;;;;;;4882948;29;20045;-72
2022/07/21 05:34:08;;;;;;;32.55;19.52;;;;;;;;;;4913755;29;20517;-72
2022/07/21 05:36:34;;;;;;;32.40;20.95;;;21.50;99.90;;;;;;4882515;29;20040;-72
2022/07/21 05:39:00;;;;;;;34.85;22.42;;;;;;;;;;4903005;29;20052;-72
2022/07/21 05:41:26;;;;;;;39.97;23.08;;;21.30;99.90;;;;;;4877046;29;20036;-71
2022/07/21 05:43:51;;;;;;;40.13;24.08;;;20.00;99.90;;;;;;4879472;29;20138;-71
2022/07/21 05:46:18;;;;;;;51.85;25.35;;;;;;;;;;4862273;29;20489;-71
2022/07/21 05:48:44;;;;;;;45.05;23.48;;;;;;;;;;4896776;29;20115;-71
2022/07/21 05:51:10;;;;;;;41.95;23.58;;;19.80;99.90;;;;;;4875180;29;20052;-71
2022/07/21 05:53:36;;;;;;;38.78;21.90;;;;;;;;;;4882232;29;20524;-71
2022/07/21 05:56:01;;;;;;;36.35;21.67;;;21.50;99.90;;;;;;4882072;29;20052;-71
2022/07/21 05:58:27;;;;;;;33.78;19.00;;;19.80;99.90;;;;;;4899246;29;20494;-71
2022/07/21 06:01:09;;;;;;;35.83;21.08;;;20.30;99.90;;;;;;4881744;29;20048;-72
2022/07/21 06:03:36;;;;;;;33.65;18.90;;;20.90;99.90;;;;;;4881776;29;20053;-70
2022/07/21 06:06:03;;;;;;;32.25;19.17;;;20.20;99.90;;;;;;4881948;29;20043;-72
2022/07/21 06:08:28;;;;;;;34.97;20.40;;;21.00;99.90;;;;;;4882102;29;20055;-72
2022/07/21 06:10:54;;;;;;;35.85;18.77;;;19.70;99.90;;;;;;4866096;29;20060;-72
2022/07/21 06:13:20;;;;;;;40.38;19.42;;;;;;;;;;4882252;29;20049;-72
2022/07/21 06:15:46;;;;;;;35.30;18.23;;;21.30;99.90;;;;;;4898316;29;20040;-72
2022/07/21 06:18:12;;;;;;;31.23;16.58;;;21.60;99.90;;;;;;4898742;29;20044;-72
2022/07/21 06:20:39;;;;;;;33.78;17.20;;;;;;;;;;4881955;29;20052;-72
2022/07/21 06:23:05;;;;;;;25.60;15.52;;;;;;;;;;4881365;29;20118;-72
2022/07/21 06:25:31;;;;;;;30.42;15.40;;;21.10;99.90;;;;;;4881274;29;20041;-72
2022/07/21 06:27:57;;;;;;;32.10;18.00;;;;;;;;;;4866451;29;20041;-72
2022/07/21 06:30:23;;;;;;;33.03;17.23;;;21.70;99.90;;;;;;4881328;29;20044;-71
2022/07/21 06:32:49;;;;;;;28.70;17.65;;;;;;;;;;4911255;29;20505;-72
2022/07/21 06:35:15;;;;;;;31.23;16.52;;;;;;;;;;4894787;29;20060;-72
2022/07/21 06:37:45;;;;;;;25.48;16.17;;;20.90;99.90;;;;;;4893619;29;20564;-72
2022/07/21 06:40:11;;;;;;;33.92;16.67;;;20.80;99.90;;;;;;4880798;29;20132;-72
2022/07/21 06:42:37;;;;;;;30.08;15.95;;;20.30;99.90;;;;;;4880989;29;20053;-72
2022/07/21 06:45:03;;;;;;;29.67;16.30;;;;;;;;;;4898038;29;20408;-72
2022/07/21 06:47:29;;;;;;;27.08;14.50;;;21.40;99.90;;;;;;4897882;29;20052;-71
2022/07/21 06:49:55;;;;;;;29.88;14.68;;;20.80;99.90;;;;;;4881469;29;20045;-72
2022/07/21 06:52:21;;;;;;;26.25;14.25;;;;;;;;;;4901810;29;20123;-72
2022/07/21 06:54:47;;;;;;;30.45;14.77;;;21.60;99.90;;;;;;4865140;29;20048;-72
2022/07/21 06:57:13;;;;;;;32.13;15.43;;;;;;;;;;4897863;29;20088;-72
2022/07/21 06:59:39;;;;;;;34.03;15.40;;;21.90;99.90;;;;;;4881490;29;20053;-71
2022/07/21 07:02:05;;;;;;;32.30;15.30;;;;;;;;;;4880754;29;20055;-72
2022/07/21 07:04:31;;;;;;;29.27;16.10;;;;;;;;;;4881038;29;20040;-72
2022/07/21 07:06:57;;;;;;;37.90;17.05;;;20.20;99.90;;;;;;4897505;29;20037;-72
2022/07/21 07:09:23;;;;;;;36.05;16.35;;;;;;;;;;4865478;29;20501;-72
2022/07/21 07:11:52;;;;;;;28.75;16.10;;;19.80;99.90;;;;;;4879779;29;20057;-72
2022/07/21 07:14:18;;;;;;;32.42;17.95;;;21.80;99.90;;;;;;4881570;29;20130;-72
2022/07/21 07:16:44;;;;;;;32.45;20.95;;;20.90;99.90;;;;;;4898452;29;20045;-72
2022/07/21 07:19:10;;;;;;;31.13;19.38;;;;;;;;;;4880516;29;20482;-72
2022/07/21 07:21:36;;;;;;;35.47;21.15;;;20.80;99.90;;;;;;4897582;29;20059;-72
2022/07/21 07:24:02;;;;;;;34.47;21.73;;;;;;;;;;4880892;29;20040;-72
2022/07/21 07:26:28;;;;;;;36.60;22.00;;;21.80;99.90;;;;;;4880798;29;20093;-72
2022/07/21 07:28:54;;;;;;;34.17;23.27;;;;;;;;;;4880982;29;20045;-72
2022/07/21 07:31:20;;;;;;;38.75;25.33;;;;;;;;;;4881147;29;20048;-73
2022/07/21 07:33:46;;;;;;;40.85;25.70;;;21.80;99.90;;;;;;4897563;29;20057;-72
2022/07/21 07:36:12;;;;;;;44.22;26.35;;;20.20;99.90;;;;;;4880801;29;20048;-72
2022/07/21 07:38:39;;;;;;;43.35;26.17;;;21.00;99.90;;;;;;4881045;29;20049;-73
2022/07/21 07:41:05;;;;;;;38.03;26.17;;;20.90;99.90;;;;;;4883863;29;20081;-73
2022/07/21 07:43:31;;;;;;;41.78;25.98;;;19.90;99.90;;;;;;4883991;29;20132;-73
2022/07/21 07:45:57;;;;;;;43.20;25.27;;;20.00;99.90;;;;;;4900452;29;20055;-73
2022/07/21 07:48:23;;;;;;;42.13;26.02;;;;;;;;;;4907834;29;20408;-72
2022/07/21 07:50:49;;;;;;;40.45;26.25;;;;;;;;;;4884242;29;20040;-72
2022/07/21 07:53:14;;;;;;;43.15;25.35;;;21.50;99.90;;;;;;4893742;29;20044;-72
2022/07/21 07:55:41;;;;;;;34.75;23.48;;;;;;;;;;4901264;29;20390;-72
2022/07/21 07:58:06;;;;;;;37.72;24.13;;;19.60;99.90;;;;;;4900547;29;20495;-72
2022/07/21 08:00:32;;;;;;;39.53;23.60;;;;;;;;;;4884269;29;20131;-72
2022/07/21 08:02:58;;;;;;;38.85;24.55;;;20.30;99.90;;;;;;4883663;29;20055;-72
2022/07/21 08:05:24;;;;;;;34.83;22.10;;;19.70;99.90;;;;;;4883810;29;20052;-72
2022/07/21 08:07:50;;;;;;;36.30;22.83;;;;;;;;;;4883942;29;20409;-72
2022/07/21 08:10:15;;;;;;;38.45;23.42;;;21.50;99.90;;;;;;4883913;29;20045;-72
2022/07/21 08:12:41;;;;;;;32.05;21.38;;;;;;;;;;4913804;29;20135;-72
2022/07/21 08:15:08;;;;;;;35.85;20.42;;;21.70;99.90;;;;;;4883691;29;20131;-72
2022/07/21 08:17:35;;;;;;;29.27;19.55;;;21.20;99.90;;;;;;4900586;29;20438;-72
2022/07/21 08:20:00;;;;;;;30.25;18.83;;;20.10;99.90;;;;;;4883984;29;20108;-73
2022/07/21 08:22:26;;;;;;;27.05;18.67;;;20.90;99.90;;;;;;4900439;29;20052;-73
2022/07/21 08:24:52;;;;;;;32.15;18.88;;;;;;;;;;4883851;29;20477;-73
2022/07/21 08:27:18;;;;;;;32.33;19.75;;;21.30;99.90;;;;;;4883526;29;20048;-73
2022/07/21 08:29:46;;;;;;;32.05;20.88;;;21.20;99.90;;;;;;4883927;29;20052;-72
2022/07/21 08:32:11;;;;;;;29.73;19.80;;;20.00;99.90;;;;;;4900283;29;20596;-73
2022/07/21 08:34:37;;;;;;;32.28;21.38;;;;;;;;;;4914791;29;20158;-73
2022/07/21 08:37:04;;;;;;;37.83;24.73;;;19.70;99.90;;;;;;4883060;29;20036;-73
2022/07/21 08:39:30;;;;;;;41.65;27.85;;;21.10;99.90;;;;;;4883076;29;20052;-72
2022/07/21 08:41:56;;;;;;;43.28;28.80;;;21.60;99.90;;;;;;4883055;29;20059;-72
2022/07/21 08:44:22;;;;;;;44.90;29.35;;;;;;;;;;4883022;29;20041;-73
2022/07/21 08:46:50;;;;;;;42.25;29.75;;;21.70;99.90;;;;;;4883192;29;20101;-73
2022/07/21 08:49:21;;;;;;;49.63;31.20;;;21.20;99.90;;;;;;4883219;29;20128;-73
2022/07/21 08:51:47;;;;;;;44.22;29.20;;;21.00;99.90;;;;;;4883053;29;20048;-72
2022/07/21 08:54:12;;;;;;;44.25;28.75;;;20.80;99.90;;;;;;4882352;29;20048;-73
2022/07/21 08:56:38;;;;;;;46.40;29.23;;;20.90;99.90;;;;;;4867511;29;20049;-73
2022/07/21 08:59:05;;;;;;;46.42;29.63;;;;;;;;;;4881733;29;20076;-73
2022/07/21 09:01:32;;;;;;;42.65;29.48;;;21.60;99.90;;;;;;4886893;29;20132;-72
2022/07/21 09:04:26;;;;;;;50.05;32.05;;;21.50;99.90;;;;;;4881979;29;20059;-72
2022/07/21 09:07:03;;;;;;;46.60;31.05;;;20.80;99.90;;;;;;4882827;29;20041;-75
2022/07/21 09:09:30;;;;;;;36.92;25.33;;;20.70;99.90;;;;;;4882201;29;20446;-72
2022/07/21 09:11:57;;;;;;;35.72;23.23;;;22.20;99.90;;;;;;4897404;29;20064;-72
2022/07/21 09:14:30;;;;;;;31.17;21.58;;;22.50;99.90;;;;;;4867199;29;20052;-73
2022/07/21 09:17:02;;;;;;;31.27;22.38;;;22.50;99.90;;;;;;4882825;29;20052;-74
2022/07/21 09:19:33;;;;;;;30.45;21.92;;;21.60;99.90;;;;;;4907814;29;20363;-74
2022/07/21 09:22:05;;;;;;;34.83;22.88;;;22.50;99.90;;;;;;4882492;29;20128;-74
2022/07/21 09:24:40;;;;;;;31.17;23.80;;;21.50;99.90;;;;;;4882446;29;20132;-74
2022/07/21 09:27:14;;;;;;;38.10;24.83;;;21.40;99.90;;;;;;4879321;29;20049;-74
2022/07/21 09:29:43;;;;;;;35.00;25.42;;;21.50;99.90;;;;;;4882745;29;20091;-73
2022/07/21 09:32:31;;;;;;;46.65;29.27;;;22.00;99.90;;;;;;4899155;29;20045;-73
2022/07/21 09:35:02;;;;;;;42.20;28.63;;;22.10;99.90;;;;;;4864070;29;20153;-68
2022/07/21 09:37:29;;;;;;;38.15;27.75;;;;;;;;;;4879694;29;20123;-70
2022/07/21 09:40:07;;;;;;;39.83;27.45;;;22.10;99.90;;;;;;4882969;29;20060;-70
2022/07/21 09:42:35;;;;;;;42.53;27.00;;;21.40;99.90;;;;;;4899564;29;20108;-70
2022/07/21 09:45:12;;;;;;;43.83;27.80;;;22.20;99.90;;;;;;4881755;29;20490;-69
2022/07/21 09:47:40;;;;;;;44.70;28.33;;;21.20;99.90;;;;;;4898851;29;20040;-70
2022/07/21 09:50:08;;;;;;;39.50;27.40;;;21.10;99.90;;;;;;4890635;29;20048;-70
2022/07/21 09:52:39;;;;;;;33.83;24.75;;;20.40;99.90;;;;;;4871676;29;20794;-70
2022/07/21 09:55:08;;;;;;;30.70;21.60;;;21.00;99.90;;;;;;4874054;29;20041;-67
2022/07/21 09:57:35;;;;;;;28.58;20.02;;;;;;;;;;4872819;29;20112;-70
2022/07/21 10:00:04;;;;;;;28.60;20.45;;;21.00;99.90;;;;;;4878984;29;20100;-70
2022/07/21 10:02:31;;;;;;;31.75;20.85;;;21.20;99.90;;;;;;4880323;29;20067;-74
2022/07/21 10:05:03;;;;;;;27.33;20.25;;;;;;;;;;4898025;29;20051;-73
2022/07/21 10:07:29;;;;;;;;;;;21.20;99.90;;;;;;4882443;29;20116;-73
2022/07/21 10:09:56;;;;;;;30.65;22.70;;;19.80;99.90;;;;;;4913105;29;20440;-73
2022/07/21 10:12:23;;;;;;;34.20;22.35;;;20.90;99.90;;;;;;4881481;29;20121;-72
2022/07/21 10:14:49;;;;;;;35.50;20.85;;;20.80;99.90;;;;;;4881668;29;20553;-72
2022/07/21 10:17:16;;;;;;;18.52;12.27;;;21.40;99.90;;;;;;4898305;29;20041;-72
2022/07/21 10:19:51;;;;;;;16.23;11.15;;;21.30;99.90;;;;;;4882189;29;20101;-72
2022/07/21 10:23:09;;;;;;;18.27;13.40;;;20.10;99.90;;;;;;4905739;29;20493;-72
2022/07/21 10:25:35;;;;;;;26.25;17.08;;;21.40;99.90;;;;;;4857128;29;20048;-70
2022/07/21 10:28:10;;;;;;;27.08;17.83;;;21.00;99.90;;;;;;4893533;29;20081;-70
2022/07/21 10:30:42;;;;;;;24.05;16.83;;;21.50;99.90;;;;;;4913119;29;20137;-70
2022/07/21 10:33:09;;;;;;;25.75;18.33;;;20.70;99.90;;;;;;4881566;29;20048;-69
2022/07/21 10:35:35;;;;;;;25.55;17.95;;;;;;;;;;4881075;29;20052;-70
2022/07/21 10:38:02;;;;;;;30.85;18.75;;;19.90;99.90;;;;;;4881254;29;20835;-69
2022/07/21 10:40:28;;;;;;;27.13;19.58;;;21.10;99.90;;;;;;4881329;29;20196;-69
2022/07/21 10:43:00;;;;;;;25.17;19.13;;;20.70;99.90;;;;;;4902947;29;20476;-70
2022/07/21 10:45:40;;;;;;;30.35;19.55;;;20.00;99.90;;;;;;4865678;29;20044;-70
2022/07/21 10:48:27;;;;;;;28.10;19.90;;;18.70;99.90;;;;;;4880890;29;20051;-70
2022/07/21 10:50:58;;;;;;;26.90;20.63;;;20.40;99.90;;;;;;4912904;29;20464;-70
2022/07/21 10:53:23;;;;;;;27.67;20.17;;;20.60;99.90;;;;;;4880096;29;20041;-71
2022/07/21 10:55:52;;;;;;;27.02;20.55;;;20.30;99.90;;;;;;4881498;29;20049;-69
2022/07/21 10:58:18;;;;;;;29.23;19.30;;;21.00;99.90;;;;;;4881106;29;20048;-71
2022/07/21 11:01:05;;;;;;;26.88;19.98;;;19.90;99.90;;;;;;4898206;29;20414;-70
2022/07/21 11:03:38;;;;;;;27.30;18.77;;;20.30;99.90;;;;;;4880443;29;20045;-71
2022/07/21 11:06:07;;;;;;;26.90;18.88;;;20.20;99.90;;;;;;4881559;29;20044;-71
2022/07/21 11:08:34;;;;;;;30.90;19.33;;;;;;;;;;4880685;29;20483;-71
2022/07/21 11:11:11;;;;;;;23.05;17.00;;;20.20;99.90;;;;;;4880247;29;20048;-72
2022/07/21 11:14:02;;;;;;;24.00;15.90;;;19.20;99.90;;;;;;4866443;29;20123;-72
2022/07/21 11:16:49;;;;;;;21.58;16.35;;;18.90;99.90;;;;;;4861296;29;20040;-72
2022/07/21 11:19:38;;;;;;;24.55;16.58;;;20.10;99.90;;;;;;4864851;29;20101;-72
2022/07/21 11:22:22;;;;;;;23.13;15.80;;;20.30;99.90;;;;;;4891771;29;20417;-72
2022/07/21 11:24:58;;;;;;;22.05;16.42;;;19.20;99.90;;;;;;4876658;29;20482;-72
2022/07/21 11:27:26;;;;;;;27.48;17.95;;;;;;;;;;4874077;29;20383;-72
2022/07/21 11:29:58;;;;;;;26.25;17.58;;;20.70;99.90;;;;;;4876383;29;20401;-72
2022/07/21 11:32:25;;;;;;;25.33;18.38;;;21.40;99.90;;;;;;4876043;29;20139;-72
2022/07/21 11:34:56;;;;;;;26.15;16.30;;;19.80;99.90;;;;;;4860356;29;20049;-72
2022/07/21 11:37:36;;;;;;;26.27;17.17;;;19.90;99.90;;;;;;4875820;29;20051;-72
2022/07/21 11:40:18;;;;;;;19.25;15.30;;;20.50;99.90;;;;;;4875597;29;20049;-73
2022/07/21 11:42:46;;;;;;;22.73;17.07;;;20.50;99.90;;;;;;4875616;29;20447;-72
2022/07/21 11:45:14;;;;;;;24.92;15.73;;;19.50;99.90;;;;;;4874141;29;20056;-72
2022/07/21 11:47:40;;;;;;;20.63;17.20;;;20.30;99.90;;;;;;4876683;29;20108;-72
2022/07/21 11:50:11;;;;;;;19.67;15.75;;;19.30;99.90;;;;;;4875708;29;20041;-72
2022/07/21 11:52:39;;;;;;;20.35;16.30;;;20.30;99.90;;;;;;4874642;29;20049;-72
2022/07/21 11:55:08;;;;;;;21.27;15.15;;;20.50;99.90;;;;;;4873595;29;20056;-72
2022/07/21 11:57:34;;;;;;;13.30;11.10;;;;;;;;;;4873499;29;20045;-72
2022/07/21 12:00:00;;;;;;;14.45;9.23;;;;;;;;;;4873542;29;20501;-72
2022/07/21 12:02:30;;;;;;;11.40;8.63;;;20.50;99.90;;;;;;4872512;29;20056;-71
2022/07/21 12:04:59;;;;;;;13.30;9.48;;;20.50;99.90;;;;;;4874276;29;20044;-71
2022/07/21 12:07:43;;;;;;;12.10;10.50;;;20.20;99.90;;;;;;4877108;29;20044;-71
2022/07/21 12:10:16;;;;;;;12.95;10.07;;;20.30;99.90;;;;;;4883982;29;20055;-72
2022/07/21 12:12:47;;;;;;;13.60;11.13;;;20.20;99.90;;;;;;4899803;29;20124;-72
2022/07/21 12:15:13;;;;;;;13.38;10.75;;;;;;;;;;4882723;29;20502;-72
2022/07/21 12:17:50;;;;;;;15.95;11.70;;;19.90;99.90;;;;;;4883262;29;20572;-72
2022/07/21 12:20:39;;;;;;;18.15;13.60;;;20.10;99.90;;;;;;4915237;29;20063;-72
2022/07/21 12:23:17;;;;;;;20.98;13.77;;;21.00;99.90;;;;;;4900434;29;20051;-72
2022/07/21 12:25:43;;;;;;;18.52;13.70;;;;;;;;;;4883141;29;20055;-72
2022/07/21 12:28:09;;;;;;;17.20;12.98;;;20.10;99.90;;;;;;4883873;29;20037;-72
2022/07/21 12:30:53;;;;;;;17.27;12.25;;;19.90;99.90;;;;;;4883974;29;20055;-72
2022/07/21 12:33:27;;;;;;;19.38;13.63;;;19.90;99.90;;;;;;4883798;29;20494;-72
2022/07/21 12:36:00;;;;;;;22.38;14.20;;;20.80;99.90;;;;;;4884189;29;20071;-72
2022/07/21 12:38:39;;;;;;;19.27;13.75;;;20.00;99.90;;;;;;4883674;29;20082;-72
2022/07/21 12:41:07;;;;;;;20.83;13.38;;;20.10;99.90;;;;;;4883583;29;20048;-72
2022/07/21 12:43:34;;;;;;;19.83;14.65;;;20.20;99.90;;;;;;4915212;29;20401;-72
2022/07/21 12:46:14;;;;;;;21.63;15.00;;;20.20;99.90;;;;;;4883730;29;20052;-72
2022/07/21 12:48:41;;;;;;;20.52;14.68;;;19.00;99.90;;;;;;4883673;29;20052;-72
2022/07/21 12:51:12;;;;;;;21.02;14.65;;;19.00;99.90;;;;;;4868063;29;20076;-72
2022/07/21 12:53:44;;;;;;;22.90;15.50;;;19.20;99.90;;;;;;4883746;29;20094;-72
2022/07/21 12:56:10;;;;;;;;;;;;;;;;;;4883829;29;20049;-72
2022/07/21 12:58:37;;;;;;;23.75;12.70;;;21.00;99.90;;;;;;4914471;29;19953;-72